Saint George, Canada
Current Conditions -  °F | °C
As of 2:00 PM on Monday 26 Jan 2015 (Local Time) from CYSJ Reporting Station
Broken Clouds Broken Clouds  
Wind Chill:   Ceiling: 26000
Heat Index: 12°   Visibility: 15mi
Dew Point: -4°   Wind: 6mph
Humidity: 48%   Direction: 310°NW
Pressure: 30.2"   Gusts: NA
Location:  45.13°N, 66.82°W
Report Text: CYSJ 261800Z 31005KT 290V020 15SM FEW020 BKN260 M11/M20 A3020 RMK SC1CI6 SLP234
Loading
Personal Weather Stations






























Interactive Weather Map New forecast layout! Learn more

10-Day Weather Forecast

Advertisements
Track Severe Weather on mobile